Saturday, September 22, 2018, 9:03 AM EDT
Back to Local

KHYA, Hyannis Barnstable Boardmn

Location: West Yarmouth, MA, United States Lat: 41.667
Local Time: 9:03 AM EDT (13:03 GMT) Lon: -70.267
Time Zone: US/Eastern Elev: 52 ft

Show me the last for .
Show Decoded

2018-09-22 07:56 METAR KHYA 221156Z 26012G18KT 9SM FEW013 23/21 A2994 RMK AO2 SLP139 T02330206
                 10233 20211 53021 =
2018-09-22 07:46 METAR KHYA 221146Z 26008KT 8SM SCT013 23/21 A2993 RMK AO2 T02280206 =
2018-09-22 06:56 METAR KHYA 221056Z 24013KT 7SM OVC012 22/20 A2992 RMK AO2 PK WND 23031/1009
                 SLP131 T02220200 =
2018-09-22 05:56 METAR KHYA 220956Z 23018G28KT 10SM OVC013 22/20 A2988 RMK AO2 PK WND 23034/0936
                 SLP118 T02220200 =
2018-09-22 04:56 METAR KHYA 220856Z AUTO 22018G27KT 10SM OVC028 22/19 A2988 RMK AO2 PK WND
                 22030/0804 SLP118 T02220194 55016 =
2018-09-22 04:49 METAR KHYA 220849Z AUTO 21018G26KT 10SM OVC028 22/19 A2988 RMK AO2 PK WND
                 22030/0804 T02220194 =
2018-09-22 03:56 METAR KHYA 220756Z AUTO 22021G30KT 10SM CLR 22/19 A2988 RMK AO2 PK WND
                 22032/0712 SLP117 T02170189 =
2018-09-22 02:56 METAR KHYA 220656Z AUTO 22019G25KT 10SM FEW019 22/19 A2991 RMK AO2 PK WND
                 22032/0628 SLP127 T02170189 =
2018-09-22 01:56 METAR KHYA 220556Z AUTO 21021G29KT 10SM CLR 22/19 A2993 RMK AO2 PK WND
                 21030/0538 SLP135 T02170189 10217 20194 58026 =
2018-09-22 00:56 METAR KHYA 220456Z AUTO 21018G26KT 10SM SCT044 21/19 A2996 RMK AO2 PK WND
                 22030/0419 SLP146 T02110189 402110117 =
2018-09-21 23:56 METAR KHYA 220356Z AUTO 20015G25KT 10SM FEW014 BKN045 21/18 A2998 RMK AO2 SLP154
                 T02110183 =
2018-09-21 22:56 METAR KHYA 220256Z AUTO 21014G22KT 10SM CLR 21/18 A3001 RMK AO2 SLP161 T02060178
                 56018 =
2018-09-21 21:56 METAR KHYA 220156Z 20015G19KT 10SM FEW046 20/17 A3001 RMK AO2 SLP164 T02000167 =
2018-09-21 20:56 METAR KHYA 220056Z 20013KT 10SM OVC046 20/16 A3003 RMK AO2 SLP170 T02000156 =
2018-09-21 19:56 METAR KHYA 212356Z 22015G23KT 10SM FEW047 SCT055 19/15 A3006 RMK AO2 SLP179
                 T01940150 10206 20183 56021 =
2018-09-21 18:56 METAR KHYA 212256Z 21014G19KT 10SM OVC049 19/15 A3007 RMK AO2 SLP182 T01940150 =
2018-09-21 18:03 METAR KHYA 212203Z 20011G18KT 10SM BKN018 18/15 A3010 RMK AO2 T01830150 =
2018-09-21 17:56 METAR KHYA 212156Z 20012G18KT 10SM SCT018 18/15 A3010 RMK AO2 SLP194 T01830150 =
2018-09-21 17:43 METAR KHYA 212143Z 21010G21KT 10SM SCT020 19/15 A3010 RMK AO2 T01890150 =
2018-09-21 16:56 METAR KHYA 212056Z 21012G20KT 10SM BKN021 19/14 A3012 RMK AO2 SLP200 T01890139
                 57023 =
2018-09-21 15:56 METAR KHYA 211956Z 20012G18KT 10SM BKN023 19/13 A3014 RMK AO2 SLP208 T01890133 =
2018-09-21 15:48 METAR KHYA 211948Z 20009G18KT 10SM BKN023 19/13 A3015 RMK AO2 T01940133 =
2018-09-21 14:56 METAR KHYA 211856Z 18009G19KT 10SM SCT024 20/13 A3017 RMK AO2 SLP217 T02000133 =
2018-09-21 14:06 METAR KHYA 211806Z 20010G16KT 10SM SCT025 20/12 A3019 RMK AO2 T02000122 =
2018-09-21 13:56 METAR KHYA 211756Z 21011G17KT 10SM BKN025 19/13 A3019 RMK AO2 SLP224 T01940128
                 10200 20161 56025 =
2018-09-21 12:56 METAR KHYA 211656Z 16008KT 10SM FEW022 19/13 A3021 RMK AO2 SLP232 T01890128 =
2018-09-21 11:56 METAR KHYA 211556Z 17007KT 120V200 10SM CLR 18/12 A3024 RMK AO2 SLP241 T01830122
                 =
2018-09-21 10:56 METAR KHYA 211456Z VRB06KT 10SM FEW025 18/12 A3026 RMK AO2 SLP249 T01830122
                 58012 =
2018-09-21 09:56 METAR KHYA 211356Z 11005KT 10SM SCT028 18/12 A3029 RMK AO2 SLP258 T01830122 =

Support USWX by starting your Amazon purchase here.